Peotone Weather

Nearby METAR Reports

 

KIGQ - Lansing, Illinois, USA
Distance from station: NE 19mi, 30km
Updated: Mon, 20-Nov-2017 7:55pm CST
Clear
Clear
 Wind from SSW
Wind: SSW 22 mph , 35 km/h, Gust: 33 mph , 54 km/h
Temperature: 45°F , 7°C
Wind Chill: 37°F , 3°C
Dew Point: 34°F , 1°C
Humidity: 66%
Barometer: 29.80 inHg , 1009.1 hPa
Clouds: Clear
Visibility: 10 miles , 16 km
2017/11/21 01:55 KIGQ 210155Z AUTO 20019G29KT 10SM CLR 07/01 A2980 RMK AO2 T00650005
KIKK - Kankakee, Illinois, USA
Distance from station: S 19mi, 30km
Updated: Mon, 20-Nov-2017 7:50pm CST
Clear
Clear
 Wind from SSW
Wind: SSW 16 mph , 26 km/h, Gust: 23 mph , 37 km/h
Temperature: 43°F , 6°C
Wind Chill: 35°F , 2°C
Dew Point: 32°F , 0°C
Humidity: 66%
Barometer: 29.83 inHg , 1010.2 hPa
Clouds: Clear
Visibility: 10 miles , 16 km
2017/11/21 01:50 KIKK 210150Z AUTO 20014G20KT 10SM CLR 06/00 A2983 RMK AO2 T00551002
 
KSJC - Joliet, Illinois, USA
Distance from station: WNW 24mi, 38km
Updated: Mon, 20-Nov-2017 7:53pm CST
Mostly cloudy
Mostly cloudy
 Wind from calm
Wind: Calm
Temperature: 64°F , 18°C
Dew Point: 50°F , 10°C
Humidity: 60%
Barometer: 30.09 inHg , 1019 hPa
Clouds: Mostly cloudy
Visibility: 10 miles , 16 km
Cloud details: Few Clouds 1700 ft
Partly cloudy 7000 ft
Mostly cloudy 10000 ft
2017/11/21 01:53 KSJC 210153Z 00000KT 10SM FEW017 SCT070 BKN100 18/10 A3009 RMK AO2 SLP190 T01830100
KLOT - Romeoville, Illinois, USA
Distance from station: NW 26mi, 41km
Updated: Mon, 20-Nov-2017 7:55pm CST
Clear
Clear
 Wind from SSW
Wind: SSW 17 mph , 28 km/h, Gust: 26 mph , 43 km/h
Temperature: 45°F , 7°C
Wind Chill: 38°F , 3°C
Dew Point: 32°F , 0°C
Humidity: 61%
Barometer: 29.77 inHg , 1008.1 hPa
Clouds: Clear
Visibility: 10 miles , 16 km
2017/11/21 01:55 KLOT 210155Z AUTO 20015G23KT 10SM CLR 07/00 A2977 RMK AO2 T00670000
 
KMDW - Midway Airport Chicago, Illinois, USA
Distance from station: N 31mi, 50km
Updated: Mon, 20-Nov-2017 7:53pm CST
Mostly cloudy
Mostly cloudy
 Wind from SSW
Wind: SSW 21 mph , 33 km/h, Gust: 36 mph , 57 km/h
Temperature: 46°F , 8°C
Wind Chill: 38°F , 3°C
Dew Point: 30°F , -1°C
Humidity: 53%
Barometer: 29.76 inHg , 1007.8 hPa
Clouds: Mostly cloudy
Visibility: 10 miles , 16 km
Cloud details: Mostly cloudy 25000 ft
2017/11/21 01:53 KMDW 210153Z 21018G31KT 10SM BKN250 08/M01 A2976 RMK AO2 PK WND 20031/0145 SLP084 T00831006
KC09 - Morris, Illinois, USA
Distance from station: W 34mi, 54km
Updated: Mon, 20-Nov-2017 7:55pm CST
Clear
Clear
 Wind from S
Wind: S 20 mph , 31 km/h
Temperature: 43°F , 6°C
Wind Chill: 34°F , 1°C
Dew Point: 32°F , 0°C
Humidity: 66%
Barometer: 29.76 inHg , 1007.8 hPa
Clouds: Clear
Visibility: 10 miles , 16 km
2017/11/21 01:55 KC09 210155Z AUTO 19017KT 10SM CLR 06/00 A2976 RMK AO2 T00640002

Metar display script from Saratoga-Weather.org